Time;durP1;ratioP1;P1;durP2;ratioP2;P2;SDS_P1;SDS_P2;PMS_P1;PMS_P2;Temp;Humidity;BMP_temperature;BMP_pressure;BME280_temperature;BME280_humidity;BME280_pressure;Samples;Min_cycle;Max_cycle;Signal;HPM_P1;HPM_P2
2021/08/04 00:01:34;;;;;;;2.78;2.50;;;14.40;99.90;;;;;;5107838;28;20076;-60
2021/08/04 00:04:00;;;;;;;3.38;2.92;;;14.50;99.90;;;;;;5110428;28;20768;-60
2021/08/04 00:06:26;;;;;;;4.15;2.75;;;14.40;99.90;;;;;;5106838;28;20036;-59
2021/08/04 00:08:52;;;;;;;2.90;2.67;;;14.40;99.90;;;;;;5111486;28;20089;-60
2021/08/04 00:11:17;;;;;;;3.13;2.80;;;14.40;99.90;;;;;;5107973;28;20473;-60
2021/08/04 00:13:43;;;;;;;3.65;2.70;;;14.40;99.90;;;;;;5102495;28;20040;-59
2021/08/04 00:16:09;;;;;;;3.53;2.95;;;14.40;99.90;;;;;;5100324;28;20472;-59
2021/08/04 00:18:34;;;;;;;3.30;3.00;;;14.40;99.90;;;;;;5111731;28;20072;-59
2021/08/04 00:21:00;;;;;;;4.07;3.50;;;14.30;99.90;;;;;;5103114;28;20039;-60
2021/08/04 00:23:26;;;;;;;5.05;3.63;;;14.30;99.90;;;;;;5111741;28;20047;-60
2021/08/04 00:25:51;;;;;;;3.78;3.47;;;14.30;99.90;;;;;;5100643;28;20380;-59
2021/08/04 00:28:17;;;;;;;3.75;3.40;;;14.20;99.90;;;;;;5105997;28;20039;-60
2021/08/04 00:30:43;;;;;;;5.07;4.15;;;14.20;99.90;;;;;;5104088;28;20040;-59
2021/08/04 00:33:08;;;;;;;5.20;3.38;;;14.20;99.90;;;;;;5110004;28;20118;-59
2021/08/04 00:35:34;;;;;;;3.70;3.33;;;14.10;99.90;;;;;;5108009;28;20032;-59
2021/08/04 00:38:00;;;;;;;5.30;3.80;;;14.00;99.90;;;;;;5108236;28;20083;-59
2021/08/04 00:40:26;;;;;;;5.20;3.78;;;14.00;99.90;;;;;;5094693;28;20047;-60
2021/08/04 00:42:52;;;;;;;4.38;3.85;;;14.00;99.90;;;;;;5109879;28;20024;-59
2021/08/04 00:45:17;;;;;;;3.47;3.17;;;13.90;99.90;;;;;;5108034;28;20058;-59
2021/08/04 00:47:43;;;;;;;5.30;3.85;;;13.90;99.90;;;;;;5113986;22;20043;-61
2021/08/04 00:50:10;;;;;;;4.07;3.70;;;13.90;99.90;;;;;;5130315;27;20039;-61
2021/08/04 00:52:36;;;;;;;4.80;4.15;;;13.80;99.90;;;;;;5128415;27;20435;-61
2021/08/04 00:55:03;;;;;;;5.78;3.75;;;13.70;99.90;;;;;;5121882;27;20035;-63
2021/08/04 00:57:28;;;;;;;3.78;3.47;;;13.70;99.90;;;;;;5120485;27;20114;-62
2021/08/04 00:59:54;;;;;;;4.15;3.75;;;13.60;99.90;;;;;;5116127;27;20035;-62
2021/08/04 01:02:42;;;;;;;4.50;4.10;;;13.60;99.90;;;;;;5127473;27;20067;-62
2021/08/04 01:05:21;;;;;;;4.05;3.75;;;13.50;99.90;;;;;;5127009;27;20031;-62
2021/08/04 01:08:01;;;;;;;4.22;3.58;;;13.50;99.90;;;;;;5116386;27;20503;-61
2021/08/04 01:10:32;;;;;;;3.80;3.45;;;13.50;99.90;;;;;;5122849;27;20160;-62
2021/08/04 01:13:14;;;;;;;4.20;3.50;;;13.50;99.90;;;;;;5114962;27;20121;-62
2021/08/04 01:15:53;;;;;;;4.65;3.45;;;13.50;99.90;;;;;;5122458;27;20054;-62
2021/08/04 01:18:30;;;;;;;4.32;3.67;;;13.50;99.90;;;;;;5124943;27;20079;-62
2021/08/04 01:20:56;;;;;;;3.53;3.22;;;13.50;99.90;;;;;;5129681;27;20070;-62
2021/08/04 01:23:47;;;;;;;3.92;3.60;;;13.40;99.90;;;;;;5127940;27;20785;-62
2021/08/04 01:26:38;;;;;;;4.32;4.03;;;13.50;99.90;;;;;;5120169;27;20035;-62
2021/08/04 01:29:08;;;;;;;5.18;4.00;;;13.50;99.90;;;;;;5127993;27;20053;-62
2021/08/04 01:31:36;;;;;;;4.47;4.13;;;13.50;99.90;;;;;;5120036;27;20032;-62
2021/08/04 01:34:03;;;;;;;6.72;3.67;;;13.60;99.90;;;;;;5121538;27;20118;-62
2021/08/04 01:36:30;;;;;;;5.10;4.45;;;13.60;99.90;;;;;;5121917;27;20047;-62
2021/08/04 01:38:58;;;;;;;5.40;4.15;;;13.60;99.90;;;;;;5129025;27;20062;-62
2021/08/04 01:41:25;;;;;;;4.53;4.15;;;13.70;99.90;;;;;;5120486;27;20135;-62
2021/08/04 01:43:51;;;;;;;4.65;4.10;;;13.70;99.90;;;;;;5120421;27;20113;-62
2021/08/04 01:46:18;;;;;;;7.88;4.00;;;13.70;99.90;;;;;;5119221;27;20063;-62
2021/08/04 01:48:45;;;;;;;4.57;4.13;;;13.80;99.90;;;;;;5113126;27;20047;-62
2021/08/04 01:51:12;;;;;;;4.28;3.88;;;13.80;99.90;;;;;;5121157;27;20049;-62
2021/08/04 01:53:40;;;;;;;3.90;3.60;;;13.80;99.90;;;;;;5112089;28;20040;-62
2021/08/04 01:56:06;;;;;;;4.20;3.80;;;13.90;99.90;;;;;;5116344;27;20039;-62
2021/08/04 01:58:32;;;;;;;5.63;3.70;;;13.80;99.90;;;;;;5125216;27;20050;-62
2021/08/04 02:00:57;;;;;;;4.45;4.07;;;13.90;99.90;;;;;;5124038;27;20035;-62
2021/08/04 02:03:23;;;;;;;4.10;3.70;;;13.90;99.90;;;;;;5129745;27;20565;-62
2021/08/04 02:05:51;;;;;;;4.35;3.85;;;13.90;99.90;;;;;;5118903;27;20035;-62
2021/08/04 02:08:34;;;;;;;3.95;3.50;;;13.90;99.90;;;;;;5114069;27;20465;-62
2021/08/04 02:11:22;;;;;;;4.80;3.65;;;13.90;99.90;;;;;;5124682;28;20055;-62
2021/08/04 02:13:59;;;;;;;5.95;3.95;;;13.90;99.90;;;;;;5112234;27;20073;-62
2021/08/04 02:16:37;;;;;;;5.10;4.05;;;13.90;99.90;;;;;;5113527;27;20027;-62
2021/08/04 02:19:12;;;;;;;4.55;4.07;;;14.00;99.90;;;;;;5131208;27;20401;-62
2021/08/04 02:21:39;;;;;;;5.68;4.85;;;14.00;99.90;;;;;;5124346;27;20084;-62
2021/08/04 02:24:05;;;;;;;4.07;3.75;;;14.00;99.90;;;;;;5116326;27;20035;-62
2021/08/04 02:26:34;;;;;;;4.90;4.13;;;14.00;99.90;;;;;;5133097;27;20091;-62
2021/08/04 02:29:01;;;;;;;4.72;4.32;;;14.00;99.90;;;;;;5123970;27;20070;-62
2021/08/04 02:31:27;;;;;;;4.45;4.10;;;14.00;99.90;;;;;;5121142;27;20507;-62
2021/08/04 02:33:53;;;;;;;6.43;4.38;;;14.00;99.90;;;;;;5124401;27;20039;-62
2021/08/04 02:36:19;;;;;;;4.95;4.00;;;14.00;99.90;;;;;;5131142;27;20185;-62
2021/08/04 02:38:46;;;;;;;3.97;3.67;;;14.00;99.90;;;;;;5127181;27;21208;-62
2021/08/04 02:41:13;;;;;;;4.30;3.90;;;14.00;99.90;;;;;;5120768;27;20035;-62
2021/08/04 02:43:39;;;;;;;4.32;3.92;;;14.10;99.90;;;;;;5125953;27;20051;-62
2021/08/04 02:46:06;;;;;;;4.60;4.20;;;14.10;99.90;;;;;;5124952;27;20118;-62
2021/08/04 02:48:33;;;;;;;6.32;4.47;;;14.00;99.90;;;;;;5132227;27;20459;-62
2021/08/04 02:51:10;;;;;;;4.65;4.00;;;13.90;99.90;;;;;;5131131;27;20419;-62
2021/08/04 02:53:36;;;;;;;4.50;3.50;;;13.90;99.90;;;;;;5134463;27;20099;-62
2021/08/04 02:56:02;;;;;;;4.47;3.53;;;13.90;99.90;;;;;;5130528;27;20059;-62
2021/08/04 02:58:28;;;;;;;3.55;3.25;;;14.00;99.90;;;;;;5115440;27;20036;-62
2021/08/04 03:00:54;;;;;;;4.18;3.25;;;14.00;99.90;;;;;;5114263;27;20043;-62
2021/08/04 03:03:20;;;;;;;3.58;3.28;;;14.00;99.90;;;;;;5130660;27;20035;-63
2021/08/04 03:05:46;;;;;;;6.10;3.47;;;14.00;99.90;;;;;;5129247;27;20046;-62
2021/08/04 03:08:11;;;;;;;3.60;3.30;;;14.00;99.90;;;;;;5128957;27;20066;-62
2021/08/04 03:10:37;;;;;;;5.05;3.65;;;14.00;99.90;;;;;;5130891;27;20035;-62
2021/08/04 03:13:03;;;;;;;4.65;3.67;;;14.00;99.90;;;;;;5128172;27;20055;-62
2021/08/04 03:15:28;;;;;;;4.20;3.80;;;14.00;99.90;;;;;;5120139;27;20071;-62
2021/08/04 03:17:54;;;;;;;4.07;3.22;;;14.00;99.90;;;;;;5129075;27;20090;-62
2021/08/04 03:20:20;;;;;;;4.20;3.80;;;14.00;99.90;;;;;;5125793;27;20146;-62
2021/08/04 03:22:47;;;;;;;4.55;3.97;;;14.00;99.90;;;;;;5120858;27;20123;-62
2021/08/04 03:25:14;;;;;;;4.10;3.70;;;14.00;99.90;;;;;;5128506;27;20046;-62
2021/08/04 03:27:40;;;;;;;4.03;3.55;;;14.00;99.90;;;;;;5133338;27;20554;-62
2021/08/04 03:30:07;;;;;;;3.67;3.38;;;13.90;99.90;;;;;;5127144;27;20044;-62
2021/08/04 03:32:32;;;;;;;5.00;4.13;;;14.00;99.90;;;;;;5121919;27;20088;-62
2021/08/04 03:34:58;;;;;;;5.28;4.00;;;14.00;99.90;;;;;;5124604;27;20053;-62
2021/08/04 03:37:23;;;;;;;5.07;3.83;;;13.90;99.90;;;;;;5122640;27;20062;-62
2021/08/04 03:39:49;;;;;;;3.92;3.60;;;14.00;99.90;;;;;;5121700;27;20061;-62
2021/08/04 03:42:16;;;;;;;4.72;4.00;;;14.00;99.90;;;;;;5133891;27;20088;-62
2021/08/04 03:44:43;;;;;;;4.15;3.70;;;14.00;99.90;;;;;;5122106;27;20043;-62
2021/08/04 03:47:09;;;;;;;3.67;3.10;;;14.00;99.90;;;;;;5114139;27;20102;-62
2021/08/04 03:49:35;;;;;;;4.15;3.28;;;14.00;99.90;;;;;;5131517;27;20066;-62
2021/08/04 03:52:01;;;;;;;4.93;4.38;;;14.10;99.90;;;;;;5126494;27;20106;-62
2021/08/04 03:54:26;;;;;;;4.60;3.60;;;14.10;99.90;;;;;;5123789;27;20122;-62
2021/08/04 03:56:52;;;;;;;5.45;3.92;;;14.10;99.90;;;;;;5113940;27;20047;-62
2021/08/04 03:59:18;;;;;;;4.45;4.05;;;14.10;99.90;;;;;;5123616;27;20031;-62
2021/08/04 04:01:44;;;;;;;4.82;4.13;;;14.00;99.90;;;;;;5128476;27;20541;-62
2021/08/04 04:04:10;;;;;;;4.50;4.10;;;14.00;99.90;;;;;;5117223;27;20039;-62
2021/08/04 04:06:35;;;;;;;5.72;4.40;;;13.90;99.90;;;;;;5123567;27;20059;-62
2021/08/04 04:09:01;;;;;;;4.30;3.90;;;13.90;99.90;;;;;;5128506;27;20093;-62
2021/08/04 04:11:27;;;;;;;4.07;3.72;;;13.90;99.90;;;;;;5121311;27;20043;-62
2021/08/04 04:13:53;;;;;;;4.40;4.00;;;13.90;99.90;;;;;;5123742;27;20038;-62
2021/08/04 04:16:19;;;;;;;4.30;3.92;;;14.00;99.90;;;;;;5124513;27;20553;-62
2021/08/04 04:18:45;;;;;;;4.57;3.95;;;14.00;99.90;;;;;;5120736;27;20059;-62
2021/08/04 04:21:10;;;;;;;4.05;3.75;;;14.00;99.90;;;;;;5122000;27;20456;-62
2021/08/04 04:23:36;;;;;;;4.38;3.60;;;14.00;99.90;;;;;;5110169;27;20042;-62
2021/08/04 04:26:03;;;;;;;4.10;3.50;;;14.10;99.90;;;;;;5122458;27;20027;-62
2021/08/04 04:28:29;;;;;;;4.53;3.63;;;14.10;99.90;;;;;;5120076;27;20082;-62
2021/08/04 04:30:56;;;;;;;4.22;3.60;;;14.10;99.90;;;;;;5114512;27;20032;-62
2021/08/04 04:33:22;;;;;;;5.18;3.78;;;14.20;99.90;;;;;;5124409;27;20564;-62
2021/08/04 04:35:48;;;;;;;4.32;3.42;;;14.20;99.90;;;;;;5114541;27;20040;-62
2021/08/04 04:38:14;;;;;;;3.58;3.13;;;14.30;99.90;;;;;;5123128;27;20031;-63
2021/08/04 04:40:39;;;;;;;4.97;3.90;;;14.30;99.90;;;;;;5129937;27;20051;-63
2021/08/04 04:43:05;;;;;;;3.78;3.45;;;14.30;99.90;;;;;;5120419;27;20077;-62
2021/08/04 04:45:31;;;;;;;4.35;4.00;;;14.30;99.90;;;;;;5118605;27;20051;-62
2021/08/04 04:47:57;;;;;;;4.10;3.70;;;14.40;99.90;;;;;;5117281;27;20062;-62
2021/08/04 04:50:22;;;;;;;4.70;3.97;;;14.40;99.90;;;;;;5126710;27;20039;-62
2021/08/04 04:52:48;;;;;;;4.80;3.60;;;14.40;99.90;;;;;;5114566;27;20039;-62
2021/08/04 04:55:14;;;;;;;4.22;3.92;;;14.40;99.90;;;;;;5116613;27;20055;-62
2021/08/04 04:57:39;;;;;;;4.43;4.03;;;14.30;99.90;;;;;;5118036;27;20070;-62
2021/08/04 05:00:07;;;;;;;5.88;4.32;;;14.30;99.90;;;;;;5126288;27;20139;-62
2021/08/04 05:02:40;;;;;;;4.90;3.90;;;14.40;99.90;;;;;;5125782;27;20035;-62
2021/08/04 05:05:07;;;;;;;4.55;4.15;;;14.40;99.90;;;;;;5127717;27;20057;-62
2021/08/04 05:07:33;;;;;;;4.28;3.67;;;14.30;99.90;;;;;;5123212;27;20587;-63
2021/08/04 05:09:58;;;;;;;4.63;3.85;;;14.40;99.90;;;;;;5114938;27;20043;-63
2021/08/04 05:12:24;;;;;;;9.38;4.43;;;14.50;99.90;;;;;;5128637;27;20452;-63
2021/08/04 05:14:50;;;;;;;4.18;3.78;;;14.50;99.90;;;;;;5114555;27;20032;-63
2021/08/04 05:17:15;;;;;;;5.13;3.78;;;14.60;99.90;;;;;;5111270;27;20040;-63
2021/08/04 05:19:41;;;;;;;4.25;3.90;;;14.70;99.90;;;;;;5117494;27;20044;-62
2021/08/04 05:22:07;;;;;;;4.78;4.32;;;14.70;99.90;;;;;;5128039;27;20046;-62
2021/08/04 05:24:34;;;;;;;4.70;3.95;;;14.80;99.90;;;;;;5125812;27;20104;-62
2021/08/04 05:26:59;;;;;;;4.35;3.95;;;14.80;99.90;;;;;;5112770;27;20040;-63
2021/08/04 05:29:25;;;;;;;4.60;3.33;;;14.90;99.90;;;;;;5114155;27;20481;-62
2021/08/04 05:31:51;;;;;;;3.90;3.50;;;15.00;99.90;;;;;;5126450;27;20035;-62
2021/08/04 05:34:17;;;;;;;3.97;3.58;;;15.10;99.90;;;;;;5102830;27;20046;-62
2021/08/04 05:36:43;;;;;;;4.30;3.90;;;15.20;99.90;;;;;;5127435;27;20468;-63
2021/08/04 05:39:09;;;;;;;3.83;3.45;;;15.30;99.90;;;;;;5126881;27;20044;-62
2021/08/04 05:41:35;;;;;;;5.82;3.60;;;15.40;99.90;;;;;;5101829;27;20042;-63
2021/08/04 05:44:01;;;;;;;3.47;3.17;;;15.50;99.90;;;;;;5124301;27;20035;-63
2021/08/04 05:46:28;;;;;;;3.00;2.70;;;15.60;99.90;;;;;;5123949;27;20071;-62
2021/08/04 05:48:54;;;;;;;4.15;3.00;;;15.60;99.90;;;;;;5127134;27;20043;-62
2021/08/04 05:51:20;;;;;;;3.05;2.85;;;15.90;99.90;;;;;;5124136;27;20125;-62
2021/08/04 05:53:48;;;;;;;3.42;2.60;;;16.00;99.90;;;;;;5127840;27;20378;-62
2021/08/04 05:56:13;;;;;;;2.65;2.42;;;16.20;99.90;;;;;;5121038;27;20042;-62
2021/08/04 05:58:39;;;;;;;5.55;2.35;;;16.50;99.90;;;;;;5127206;27;20039;-62
2021/08/04 06:01:04;;;;;;;3.13;2.33;;;17.20;99.90;;;;;;5123651;27;20434;-63
2021/08/04 06:03:31;;;;;;;2.78;2.17;;;18.30;99.90;;;;;;5125478;27;20058;-63
2021/08/04 06:05:56;;;;;;;3.00;1.90;;;19.00;99.90;;;;;;5131186;27;20031;-66
2021/08/04 06:08:22;;;;;;;2.53;1.85;;;19.80;99.90;;;;;;5132675;27;20114;-66
2021/08/04 06:10:48;;;;;;;2.08;1.88;;;20.60;99.90;;;;;;5131813;27;20039;-67
2021/08/04 06:13:13;;;;;;;2.13;1.80;;;21.20;99.90;;;;;;5133449;27;20507;-67
2021/08/04 06:15:39;;;;;;;3.20;1.73;;;21.90;99.90;;;;;;5129872;27;20035;-66
2021/08/04 06:18:05;;;;;;;2.75;1.80;;;22.60;98.50;;;;;;5116274;27;20039;-67
2021/08/04 06:20:30;;;;;;;2.03;1.40;;;23.30;97.00;;;;;;5115060;28;20442;-67
2021/08/04 06:22:56;;;;;;;1.67;1.50;;;23.30;94.60;;;;;;5116062;27;20559;-67
2021/08/04 06:25:21;;;;;;;1.67;1.58;;;23.70;94.80;;;;;;5124028;27;20041;-67
2021/08/04 06:27:49;;;;;;;1.70;1.30;;;23.70;93.90;;;;;;5132241;27;20460;-67
2021/08/04 06:30:15;;;;;;;2.60;1.48;;;24.40;92.10;;;;;;5124361;27;20055;-67
2021/08/04 06:32:40;;;;;;;2.33;1.50;;;24.80;91.30;;;;;;5116014;27;20043;-67
2021/08/04 06:35:06;;;;;;;2.60;1.30;;;24.90;91.70;;;;;;5131863;27;20168;-67
2021/08/04 06:37:39;;;;;;;4.28;1.52;;;24.90;91.10;;;;;;5133628;27;20042;-67
2021/08/04 06:40:05;;;;;;;1.35;1.25;;;24.50;91.00;;;;;;5133034;27;20082;-67
2021/08/04 06:42:40;;;;;;;1.65;1.38;;;24.10;90.60;;;;;;5127357;27;20099;-66
2021/08/04 06:45:06;;;;;;;2.03;1.17;;;23.00;92.60;;;;;;5133883;27;20031;-67
2021/08/04 06:47:32;;;;;;;1.38;1.20;;;22.60;93.70;;;;;;5109634;22;20151;-60
2021/08/04 06:49:58;;;;;;;1.63;1.52;;;22.20;94.30;;;;;;5037228;28;20050;-60
2021/08/04 06:52:24;;;;;;;2.63;1.80;;;21.50;94.90;;;;;;5015775;28;20039;-60
2021/08/04 06:54:49;;;;;;;1.35;1.20;;;21.60;95.50;;;;;;5043834;28;20046;-60
2021/08/04 06:57:15;;;;;;;1.45;1.35;;;21.60;95.60;;;;;;5006138;28;20382;-60
2021/08/04 06:59:41;;;;;;;1.30;1.20;;;22.20;95.30;;;;;;4991169;28;20129;-60
2021/08/04 07:02:06;;;;;;;1.45;1.35;;;23.10;93.80;;;;;;4994408;28;20117;-60
2021/08/04 07:04:32;;;;;;;1.38;1.20;;;23.60;92.80;;;;;;5009779;28;20073;-60
2021/08/04 07:07:00;;;;;;;1.30;1.20;;;24.20;91.70;;;;;;5009508;28;20038;-60
2021/08/04 07:09:26;;;;;;;1.55;1.42;;;25.00;90.90;;;;;;5011159;28;20034;-60
2021/08/04 07:11:52;;;;;;;2.03;1.50;;;25.30;88.30;;;;;;4998572;28;20109;-61
2021/08/04 07:14:18;;;;;;;2.00;1.30;;;25.40;88.70;;;;;;5004168;28;20090;-61
2021/08/04 07:16:45;;;;;;;2.30;1.10;;;26.00;85.30;;;;;;5006111;28;20042;-61
2021/08/04 07:19:11;;;;;;;1.20;1.10;;;26.10;80.30;;;;;;5006887;28;20038;-61
2021/08/04 07:21:38;;;;;;;1.23;1.00;;;25.30;82.90;;;;;;4991698;28;21275;-61
2021/08/04 07:24:08;;;;;;;1.33;1.10;;;24.80;85.50;;;;;;5002410;28;20038;-61
2021/08/04 07:26:35;;;;;;;2.38;1.23;;;24.40;87.00;;;;;;5031716;28;20036;-61
2021/08/04 07:29:01;;;;;;;1.45;1.30;;;24.10;88.50;;;;;;5095063;28;20053;-62
2021/08/04 07:31:27;;;;;;;1.83;1.10;;;23.70;89.60;;;;;;5002960;28;20030;-62
2021/08/04 07:33:53;;;;;;;1.50;1.40;;;23.30;89.50;;;;;;5009520;28;20038;-62
2021/08/04 07:36:18;;;;;;;1.98;1.50;;;22.80;90.90;;;;;;5009748;28;20083;-62
2021/08/04 07:38:44;;;;;;;1.65;1.55;;;23.00;91.40;;;;;;5007491;28;20050;-62
2021/08/04 07:41:10;;;;;;;1.60;1.50;;;22.90;91.30;;;;;;5008247;28;20042;-62
2021/08/04 07:43:36;;;;;;;1.83;1.58;;;22.60;92.10;;;;;;5008580;28;20124;-62
2021/08/04 07:46:01;;;;;;;3.00;1.35;;;22.20;92.80;;;;;;5007618;28;20394;-62
2021/08/04 07:48:28;;;;;;;1.60;1.38;;;22.10;93.80;;;;;;5021349;28;20047;-62
2021/08/04 07:50:55;;;;;;;2.05;1.27;;;22.10;93.70;;;;;;5008870;28;20121;-62
2021/08/04 07:53:21;;;;;;;2.92;1.55;;;21.90;94.00;;;;;;5007016;28;20038;-62
2021/08/04 07:55:47;;;;;;;2.17;1.20;;;21.50;93.50;;;;;;4994181;28;20065;-62
2021/08/04 07:58:12;;;;;;;2.63;1.27;;;21.20;94.90;;;;;;5006341;28;20185;-62
2021/08/04 08:00:38;;;;;;;1.10;0.90;;;21.30;95.00;;;;;;5008025;28;20041;-62
2021/08/04 08:03:04;;;;;;;1.67;0.95;;;21.40;95.30;;;;;;5072483;28;20072;-62
2021/08/04 08:05:29;;;;;;;2.78;1.10;;;21.50;94.90;;;;;;5009608;28;20042;-62
2021/08/04 08:07:55;;;;;;;0.88;0.88;;;21.50;94.40;;;;;;5006964;28;20043;-62
2021/08/04 08:10:25;;;;;;;1.10;0.80;;;21.40;94.00;;;;;;4997268;28;20046;-62
2021/08/04 08:12:50;;;;;;;0.73;0.73;;;21.30;94.00;;;;;;5005896;28;20502;-62
2021/08/04 08:15:16;;;;;;;2.00;1.20;;;21.50;93.80;;;;;;4997087;28;20038;-65
2021/08/04 08:17:42;;;;;;;1.38;1.23;;;21.60;94.00;;;;;;5008588;28;20037;-63
2021/08/04 08:20:10;;;;;;;2.13;1.15;;;21.60;93.30;;;;;;5006844;28;20046;-62
2021/08/04 08:22:35;;;;;;;1.52;1.00;;;21.50;92.90;;;;;;5001497;28;20675;-62
2021/08/04 08:25:01;;;;;;;2.03;0.90;;;21.70;92.90;;;;;;5005371;28;20041;-62
2021/08/04 08:27:27;;;;;;;0.73;0.73;;;21.30;93.90;;;;;;4999231;28;20035;-62
2021/08/04 08:29:52;;;;;;;2.70;0.90;;;21.30;92.90;;;;;;5002154;28;20037;-62
2021/08/04 08:32:18;;;;;;;1.05;0.93;;;21.70;93.20;;;;;;4998588;28;20058;-62
2021/08/04 08:34:44;;;;;;;1.70;1.00;;;21.70;93.20;;;;;;5023469;28;20084;-63
2021/08/04 08:37:13;;;;;;;0.93;0.60;;;21.90;93.10;;;;;;5004055;28;20034;-62
2021/08/04 08:39:38;;;;;;;1.13;0.80;;;22.00;93.30;;;;;;4988289;28;20049;-63
2021/08/04 08:42:04;;;;;;;1.48;0.90;;;22.10;93.60;;;;;;4997617;28;20034;-62
2021/08/04 08:44:30;;;;;;;2.90;1.13;;;22.30;93.10;;;;;;5008749;28;20728;-63
2021/08/04 08:47:05;;;;;;;1.95;1.08;;;22.30;92.20;;;;;;5007727;28;20041;-64
2021/08/04 08:49:33;;;;;;;1.08;0.90;;;22.40;93.10;;;;;;5032242;28;20476;-63
2021/08/04 08:51:58;;;;;;;0.82;0.82;;;22.60;92.90;;;;;;5008856;28;20129;-63
2021/08/04 08:54:26;;;;;;;2.15;1.27;;;22.60;92.70;;;;;;5009184;28;20141;-63
2021/08/04 08:56:53;;;;;;;1.20;0.98;;;21.90;91.70;;;;;;5009345;28;20041;-63
2021/08/04 08:59:19;;;;;;;1.10;1.00;;;22.00;93.30;;;;;;5009091;28;20507;-63
2021/08/04 09:01:46;;;;;;;1.38;1.23;;;22.00;92.80;;;;;;5008939;28;20050;-62
2021/08/04 09:04:16;;;;;;;2.13;1.20;;;22.10;92.20;;;;;;5028937;28;20030;-63
2021/08/04 09:06:43;;;;;;;1.90;1.10;;;21.50;91.80;;;;;;5008534;28;20038;-62
2021/08/04 09:09:18;;;;;;;1.23;1.10;;;21.30;91.90;;;;;;5008889;28;20049;-63
2021/08/04 09:11:46;;;;;;;1.30;1.20;;;21.50;92.80;;;;;;5008972;28;20053;-62
2021/08/04 09:14:12;;;;;;;1.70;1.10;;;21.40;92.50;;;;;;5008806;28;20034;-63
2021/08/04 09:16:39;;;;;;;1.02;0.93;;;21.60;93.90;;;;;;5008777;28;20069;-62
2021/08/04 09:19:19;;;;;;;2.08;1.17;;;21.80;93.30;;;;;;5010311;28;20498;-62
2021/08/04 09:22:07;;;;;;;1.15;1.00;;;21.50;93.50;;;;;;5087534;28;20112;-62
2021/08/04 09:24:51;;;;;;;1.90;1.10;;;21.90;93.00;;;;;;5008767;28;20126;-62
2021/08/04 09:27:17;;;;;;;1.98;1.30;;;21.90;91.90;;;;;;5007769;28;20041;-62
2021/08/04 09:29:59;;;;;;;1.73;1.17;;;21.70;91.40;;;;;;5008642;28;20041;-62
2021/08/04 09:32:30;;;;;;;1.45;1.35;;;21.60;93.60;;;;;;5008374;28;20044;-62
2021/08/04 09:35:05;;;;;;;1.75;1.50;;;21.90;93.60;;;;;;5007492;28;20074;-62
2021/08/04 09:37:30;;;;;;;2.10;1.52;;;21.80;93.20;;;;;;5060019;28;20489;-62
2021/08/04 09:39:58;;;;;;;1.67;1.23;;;22.00;93.60;;;;;;5036682;28;20078;-63
2021/08/04 09:42:45;;;;;;;1.58;1.20;;;22.20;93.50;;;;;;5008442;28;20099;-62
2021/08/04 09:45:12;;;;;;;1.45;1.27;;;22.20;91.80;;;;;;5007076;28;20041;-62
2021/08/04 09:47:53;;;;;;;2.75;1.67;;;22.40;92.50;;;;;;5006991;28;20050;-62
2021/08/04 09:50:19;;;;;;;1.67;1.38;;;22.50;92.90;;;;;;4999724;28;20186;-63
2021/08/04 09:52:55;;;;;;;1.73;1.40;;;22.40;93.10;;;;;;5012210;28;20151;-63
2021/08/04 09:55:21;;;;;;;1.83;1.50;;;22.40;91.70;;;;;;5104271;28;20176;-63
2021/08/04 09:57:51;;;;;;;2.40;1.75;;;22.20;90.80;;;;;;4996989;28;20495;-63
2021/08/04 10:00:17;;;;;;;1.90;1.70;;;22.30;92.20;;;;;;5008137;28;20044;-63
2021/08/04 10:02:44;;;;;;;2.80;1.50;;;22.40;91.90;;;;;;5007403;28;20053;-63
2021/08/04 10:05:20;;;;;;;2.00;1.38;;;22.50;93.60;;;;;;4988661;28;20050;-63
2021/08/04 10:08:05;;;;;;;2.33;1.40;;;22.60;92.80;;;;;;4987280;28;20038;-63
2021/08/04 10:10:49;;;;;;;4.45;1.30;;;22.60;92.70;;;;;;5030257;28;20032;-63
2021/08/04 10:13:18;;;;;;;1.67;1.10;;;22.80;91.70;;;;;;5065390;28;20049;-63
2021/08/04 10:15:52;;;;;;;2.65;1.20;;;22.80;92.60;;;;;;5008116;28;20452;-63
2021/08/04 10:18:24;;;;;;;1.27;1.17;;;22.40;92.10;;;;;;5007936;28;20034;-63
2021/08/04 10:20:53;;;;;;;1.13;1.02;;;22.40;92.60;;;;;;5007973;28;20086;-63
2021/08/04 10:23:20;;;;;;;1.70;1.38;;;22.20;93.10;;;;;;5007995;28;20042;-63
2021/08/04 10:25:46;;;;;;;1.67;1.25;;;22.10;93.10;;;;;;5006968;28;20042;-63
2021/08/04 10:28:12;;;;;;;1.85;1.17;;;21.20;93.80;;;;;;4986984;28;20080;-63
2021/08/04 10:30:39;;;;;;;1.33;1.23;;;21.10;94.10;;;;;;5000024;28;20045;-63
2021/08/04 10:33:05;;;;;;;1.65;1.20;;;21.30;94.20;;;;;;5007626;28;20490;-63
2021/08/04 10:35:33;;;;;;;1.75;1.48;;;21.60;94.90;;;;;;5007820;28;20040;-62
2021/08/04 10:38:00;;;;;;;1.63;1.27;;;21.70;94.10;;;;;;5008617;28;20455;-63
2021/08/04 10:40:26;;;;;;;2.78;1.30;;;21.60;93.60;;;;;;5011092;28;20531;-63
2021/08/04 10:42:53;;;;;;;2.63;1.50;;;21.50;93.50;;;;;;5074359;28;20040;-63
2021/08/04 10:45:27;;;;;;;1.48;1.38;;;21.40;93.10;;;;;;5114845;28;20427;-63
2021/08/04 10:47:57;;;;;;;1.90;1.10;;;21.50;93.50;;;;;;5041253;28;20073;-63
2021/08/04 10:50:23;;;;;;;2.08;1.40;;;21.60;93.90;;;;;;5033871;28;20039;-63
2021/08/04 10:52:58;;;;;;;4.43;1.50;;;21.30;93.30;;;;;;5052308;28;20114;-63
2021/08/04 10:55:50;;;;;;;1.50;1.23;;;21.40;93.10;;;;;;5114440;28;20046;-63
2021/08/04 10:58:16;;;;;;;2.28;1.20;;;21.20;93.50;;;;;;5114238;28;20039;-63
2021/08/04 11:00:42;;;;;;;1.40;1.30;;;21.10;93.90;;;;;;5109767;28;20058;-63
2021/08/04 11:03:29;;;;;;;1.83;1.42;;;21.00;94.50;;;;;;5094700;28;20066;-63
2021/08/04 11:06:12;;;;;;;1.85;0.98;;;21.00;95.40;;;;;;5006269;28;20038;-63
2021/08/04 11:08:40;;;;;;;1.77;1.30;;;21.50;95.30;;;;;;4989749;28;20468;-63
2021/08/04 11:11:06;;;;;;;2.17;1.20;;;21.60;94.40;;;;;;4991159;28;20042;-63
2021/08/04 11:13:48;;;;;;;2.95;1.40;;;21.50;93.50;;;;;;4990839;28;20190;-63
2021/08/04 11:16:28;;;;;;;2.28;1.50;;;21.20;94.20;;;;;;5087333;28;20043;-63
2021/08/04 11:19:06;;;;;;;2.30;2.00;;;21.00;94.30;;;;;;5113746;28;20047;-63
2021/08/04 11:21:32;;;;;;;2.40;1.70;;;20.70;95.10;;;;;;5041747;28;20044;-63
2021/08/04 11:23:59;;;;;;;1.95;1.52;;;20.70;94.90;;;;;;5051817;27;20396;-63
2021/08/04 11:26:31;;;;;;;1.65;1.55;;;21.10;96.30;;;;;;5014434;28;20483;-63
2021/08/04 11:28:58;;;;;;;1.80;1.70;;;21.60;95.40;;;;;;5008929;28;20479;-63
2021/08/04 11:31:24;;;;;;;2.88;1.85;;;22.00;94.90;;;;;;5007668;28;20404;-63
2021/08/04 11:33:50;;;;;;;3.13;1.85;;;21.80;93.20;;;;;;5019982;28;20116;-64
2021/08/04 11:36:22;;;;;;;2.30;1.65;;;21.30;93.60;;;;;;5010856;28;20114;-63
2021/08/04 11:39:06;;;;;;;1.70;1.60;;;21.50;94.70;;;;;;5032285;28;20078;-63
2021/08/04 11:41:39;;;;;;;2.10;1.88;;;21.40;95.80;;;;;;5041788;28;20046;-63
2021/08/04 11:44:28;;;;;;;2.70;1.80;;;21.60;95.10;;;;;;5003886;28;20042;-63
2021/08/04 11:47:05;;;;;;;2.20;1.67;;;22.00;95.10;;;;;;5003810;28;20096;-63
2021/08/04 11:49:36;;;;;;;2.67;1.58;;;22.00;94.40;;;;;;4999471;28;20491;-63
2021/08/04 11:52:08;;;;;;;2.30;1.50;;;21.90;94.40;;;;;;5026125;28;20039;-63
2021/08/04 11:54:33;;;;;;;1.88;1.40;;;21.90;94.50;;;;;;5007542;28;20034;-63
2021/08/04 11:57:00;;;;;;;3.13;1.25;;;21.90;94.80;;;;;;5030150;28;20050;-63
2021/08/04 11:59:26;;;;;;;1.48;1.25;;;22.00;94.00;;;;;;5042842;28;20064;-63
2021/08/04 12:02:00;;;;;;;2.08;1.40;;;22.10;93.90;;;;;;4996015;28;20038;-63
2021/08/04 12:04:27;;;;;;;1.92;1.50;;;22.50;93.30;;;;;;5001726;28;20041;-63
2021/08/04 12:06:57;;;;;;;2.20;1.30;;;22.80;92.90;;;;;;5009043;28;20112;-63
2021/08/04 12:09:26;;;;;;;3.00;1.45;;;23.00;92.20;;;;;;5006764;28;20038;-64
2021/08/04 12:11:53;;;;;;;1.55;1.30;;;22.80;91.20;;;;;;5008884;28;20042;-64
2021/08/04 12:14:20;;;;;;;2.72;1.55;;;22.50;89.90;;;;;;5036625;28;20042;-64
2021/08/04 12:16:49;;;;;;;1.92;1.52;;;22.90;91.30;;;;;;5005981;28;20071;-63
2021/08/04 12:19:31;;;;;;;1.92;1.15;;;23.20;90.60;;;;;;5008014;28;20464;-63
2021/08/04 12:21:57;;;;;;;1.35;1.10;;;23.50;90.90;;;;;;4999018;28;20038;-62
2021/08/04 12:24:23;;;;;;;2.25;1.20;;;23.60;91.00;;;;;;5008834;28;20042;-62
2021/08/04 12:26:49;;;;;;;1.75;1.02;;;23.70;91.20;;;;;;5010856;28;20049;-64
2021/08/04 12:29:24;;;;;;;2.67;1.27;;;23.80;91.10;;;;;;5009080;28;20042;-63
2021/08/04 12:32:06;;;;;;;2.40;1.50;;;23.90;90.20;;;;;;5039175;28;20594;-63
2021/08/04 12:34:41;;;;;;;1.42;1.20;;;24.00;89.40;;;;;;4998416;28;20114;-63
2021/08/04 12:37:07;;;;;;;3.17;1.13;;;24.20;89.30;;;;;;4999443;28;20034;-63
2021/08/04 12:39:32;;;;;;;2.08;1.20;;;24.20;88.70;;;;;;5008312;28;20041;-63
2021/08/04 12:41:58;;;;;;;2.25;1.50;;;24.00;90.10;;;;;;5003759;28;20065;-63
2021/08/04 12:44:24;;;;;;;1.98;1.20;;;24.00;88.70;;;;;;4989243;28;20038;-63
2021/08/04 12:46:50;;;;;;;2.60;1.50;;;24.00;85.20;;;;;;5002504;28;20108;-63
2021/08/04 12:49:21;;;;;;;1.90;1.17;;;23.60;84.00;;;;;;5003819;28;20046;-63
2021/08/04 12:51:57;;;;;;;1.90;1.48;;;23.70;87.50;;;;;;5089004;28;20549;-63
2021/08/04 12:54:31;;;;;;;1.85;1.20;;;23.80;89.10;;;;;;5043339;28;20448;-63